Time;durP1;ratioP1;P1;durP2;ratioP2;P2;SDS_P1;SDS_P2;PMS_P1;PMS_P2;Temp;Humidity;BMP_temperature;BMP_pressure;BME280_temperature;BME280_humidity;BME280_pressure;Samples;Min_cycle;Max_cycle;Signal;HPM_P1;HPM_P2
2022/06/14 00:01:10;;;;;;;2.87;1.87;;;;;;;8.08;100.00;97106.28;10371598;28;20233;-53
2022/06/14 00:06:22;;;;;;;4.33;2.10;;;;;;;7.86;100.00;97111.53;10372534;28;20195;-56
2022/06/14 00:11:26;;;;;;;3.90;1.80;;;;;;;7.99;100.00;97118.31;10372105;28;20623;-56
2022/06/14 00:16:27;;;;;;;5.10;1.83;;;;;;;7.98;100.00;97121.91;10372342;28;20201;-55
2022/06/14 00:21:28;;;;;;;10.53;2.10;;;;;;;7.84;100.00;97125.66;10371868;28;20243;-53
2022/06/14 00:26:28;;;;;;;4.73;2.23;;;;;;;7.81;100.00;97123.31;10371877;28;20588;-57
2022/06/14 00:31:29;;;;;;;7.97;2.53;;;;;;;7.77;100.00;97137.59;10371825;28;20201;-50
2022/06/14 00:36:34;;;;;;;6.80;2.57;;;;;;;7.68;100.00;97141.78;10371137;28;20193;-50
2022/06/14 00:41:42;;;;;;;6.23;2.60;;;;;;;7.62;100.00;97134.47;10371350;28;20233;-51
2022/06/14 00:47:01;;;;;;;5.17;2.57;;;;;;;7.53;100.00;97132.63;10370785;28;20240;-53
2022/06/14 00:52:06;;;;;;;4.80;2.13;;;;;;;7.46;100.00;97134.91;10370797;28;20227;-52
2022/06/14 00:57:18;;;;;;;2.27;1.90;;;;;;;7.29;100.00;97139.72;10352834;28;20197;-50
2022/06/14 01:02:23;;;;;;;4.20;2.60;;;;;;;7.17;100.00;97142.50;10352077;28;20700;-51
2022/06/14 01:07:30;;;;;;;3.83;2.30;;;;;;;7.03;100.00;97141.84;10370068;28;20192;-50
2022/06/14 01:12:34;;;;;;;2.77;2.40;;;;;;;6.94;100.00;97146.00;10370048;28;20209;-50
2022/06/14 01:17:42;;;;;;;5.23;2.90;;;;;;;6.88;100.00;97145.69;10369782;28;20197;-49
2022/06/14 01:22:43;;;;;;;6.17;2.50;;;;;;;6.83;100.00;97142.59;10369156;28;20233;-54
2022/06/14 01:27:44;;;;;;;7.80;2.67;;;;;;;6.79;100.00;97149.84;10352601;28;20191;-54
2022/06/14 01:33:05;;;;;;;6.80;2.63;;;;;;;6.76;100.00;97153.50;10369145;28;20209;-56
2022/06/14 01:38:08;;;;;;;4.27;2.43;;;;;;;6.74;100.00;97145.00;10351522;28;20615;-52
2022/06/14 01:43:30;;;;;;;7.90;2.80;;;;;;;6.66;100.00;97152.59;10351049;28;20225;-53
2022/06/14 01:48:43;;;;;;;4.13;2.50;;;;;;;6.66;100.00;97157.81;10351254;28;20666;-55
2022/06/14 01:54:07;;;;;;;3.87;2.50;;;;;;;6.58;100.00;97157.56;10350685;28;20208;-53
2022/06/14 01:59:31;;;;;;;6.70;2.43;;;;;;;6.55;100.00;97157.81;10350488;28;20185;-51
2022/06/14 02:04:56;;;;;;;6.63;3.00;;;;;;;6.49;100.00;97161.72;10350365;28;20233;-49
2022/06/14 02:10:25;;;;;;;7.57;2.80;;;;;;;6.37;100.00;97173.06;10368033;28;20217;-50
2022/06/14 02:15:42;;;;;;;4.97;2.47;;;;;;;6.32;100.00;97177.81;10367850;28;20197;-49
2022/06/14 02:20:58;;;;;;;4.73;2.70;;;;;;;6.22;100.00;97182.91;10349226;28;20311;-49
2022/06/14 02:26:04;;;;;;;6.27;2.20;;;;;;;6.19;100.00;97183.97;10414326;23;20234;-57
2022/06/14 02:31:11;;;;;;;4.70;2.70;;;;;;;6.14;100.00;97174.84;10434627;28;20198;-56
2022/06/14 02:36:16;;;;;;;5.60;2.70;;;;;;;6.17;100.00;97183.25;10434555;28;20575;-57
2022/06/14 02:41:21;;;;;;;5.20;3.00;;;;;;;6.02;100.00;97185.25;10434711;28;20569;-55
2022/06/14 02:46:37;;;;;;;5.10;3.17;;;;;;;6.10;100.00;97194.25;10451837;28;20592;-59
2022/06/14 02:51:41;;;;;;;3.23;2.60;;;;;;;6.06;100.00;97191.88;10452009;28;20219;-57
2022/06/14 02:56:47;;;;;;;3.90;2.67;;;;;;;5.96;100.00;97195.25;10451635;28;20203;-57
2022/06/14 03:01:57;;;;;;;4.40;2.93;;;;;;;5.91;100.00;97203.38;10433682;28;20215;-52
2022/06/14 03:07:14;;;;;;;7.53;2.47;;;;;;;5.95;100.00;97204.81;10369374;28;20205;-57
2022/06/14 03:12:40;;;;;;;4.90;2.53;;;;;;;5.93;100.00;97203.28;10352332;28;20741;-54
2022/06/14 03:17:55;;;;;;;7.47;3.20;;;;;;;5.94;100.00;97207.53;10368223;28;20280;-54
2022/06/14 03:23:11;;;;;;;5.93;2.83;;;;;;;5.98;100.00;97212.41;10368685;28;20192;-53
2022/06/14 03:28:43;;;;;;;5.57;2.90;;;;;;;6.00;100.00;97214.91;10379777;28;20239;-53
2022/06/14 03:33:51;;;;;;;5.57;2.67;;;;;;;6.06;100.00;97212.69;10413349;28;20633;-53
2022/06/14 03:38:54;;;;;;;7.57;2.80;;;;;;;6.23;100.00;97218.38;10399943;28;20578;-54
2022/06/14 03:43:58;;;;;;;6.23;2.53;;;;;;;6.28;100.00;97218.00;10399907;28;20193;-57
2022/06/14 03:49:03;;;;;;;5.20;2.90;;;;;;;6.36;100.00;97208.69;10416636;28;20208;-57
2022/06/14 03:54:15;;;;;;;8.60;2.20;;;;;;;6.52;100.00;97216.13;10399037;28;20691;-54
2022/06/14 03:59:26;;;;;;;7.97;2.70;;;;;;;6.59;100.00;97217.31;10414682;28;20227;-53
2022/06/14 04:04:48;;;;;;;8.00;2.87;;;;;;;6.71;100.00;97222.53;10415603;28;20296;-53
2022/06/14 04:10:03;;;;;;;3.53;2.47;;;;;;;6.82;100.00;97227.72;10415348;28;20212;-53
2022/06/14 04:15:41;;;;;;;6.43;2.60;;;;;;;7.04;100.00;97216.41;10415318;28;20220;-53
2022/06/14 04:20:44;;;;;;;6.13;2.33;;;;;;;7.17;100.00;97218.03;10416300;28;20216;-54
2022/06/14 04:25:58;;;;;;;5.40;2.50;;;;;;;7.42;100.00;97214.31;10415671;28;20232;-53
2022/06/14 04:31:04;;;;;;;4.63;2.40;;;;;;;7.53;100.00;97216.03;10414495;28;20193;-54
2022/06/14 04:36:17;;;;;;;3.43;2.20;;;;;;;7.68;100.00;97227.84;10415680;28;20291;-55
2022/06/14 04:41:49;;;;;;;4.70;2.10;;;;;;;7.80;100.00;97215.56;10397817;28;20199;-53
2022/06/14 04:46:58;;;;;;;4.23;2.37;;;;;;;7.88;100.00;97217.53;10395515;28;20627;-53
2022/06/14 04:52:12;;;;;;;5.03;2.17;;;;;;;8.11;100.00;97218.25;10414930;28;20221;-53
2022/06/14 04:57:24;;;;;;;6.97;2.20;;;;;;;8.26;100.00;97216.13;10396655;28;20844;-57
2022/06/14 05:02:28;;;;;;;8.07;2.20;;;;;;;8.47;100.00;97219.56;10397026;28;20193;-53
2022/06/14 05:07:34;;;;;;;2.73;2.00;;;;;;;8.72;100.00;97227.91;10413953;28;20758;-55
2022/06/14 05:12:45;;;;;;;4.73;2.30;;;;;;;9.04;100.00;97226.91;10398662;28;20246;-55
2022/06/14 05:17:50;;;;;;;4.67;2.00;;;;;;;9.61;100.00;97220.06;10413780;28;20291;-54
2022/06/14 05:23:06;;;;;;;9.87;2.93;;;;;;;10.05;100.00;97208.34;10396164;28;20214;-54
2022/06/14 05:28:10;;;;;;;6.93;2.10;;;;;;;10.49;100.00;97204.25;10395834;28;20239;-54
2022/06/14 05:33:28;;;;;;;4.57;1.70;;;;;;;11.00;98.33;97186.34;10413119;28;20711;-54
2022/06/14 05:38:45;;;;;;;7.87;1.67;;;;;;;11.56;90.78;97144.22;10411860;28;20227;-55
2022/06/14 05:43:53;;;;;;;8.33;1.83;;;;;;;10.89;91.58;97170.81;10413067;28;20271;-54
2022/06/14 05:49:08;;;;;;;5.03;2.03;;;;;;;11.15;91.81;97173.56;10395023;28;20223;-55
2022/06/14 05:54:18;;;;;;;6.03;1.77;;;;;;;11.85;89.20;97166.75;10412075;28;20722;-53
2022/06/14 05:59:36;;;;;;;4.15;1.38;;;;;;;11.70;89.59;97180.44;10411943;28;20216;-54
2022/06/14 06:04:42;;;;;;;3.78;1.58;;;;;;;12.04;86.10;97156.09;10411058;28;20273;-54
2022/06/14 06:09:52;;;;;;;10.63;1.70;;;;;;;11.42;85.67;97169.19;10413756;28;20282;-56
2022/06/14 06:14:54;;;;;;;3.95;1.30;;;;;;;12.32;84.55;97174.31;10410463;28;20227;-55
2022/06/14 06:20:21;;;;;;;5.95;1.60;;;;;;;13.22;83.00;97180.91;10411889;28;20246;-56
2022/06/14 06:25:26;;;;;;;4.45;1.48;;;;;;;14.09;78.76;97144.41;10411247;28;20645;-58
2022/06/14 06:30:32;;;;;;;6.65;1.45;;;;;;;14.34;77.73;97150.41;10434421;28;20701;-58
2022/06/14 06:35:55;;;;;;;5.28;1.77;;;;;;;14.45;75.86;97128.94;10451949;28;20624;-57
2022/06/14 06:46:41;;;;;;;5.22;1.88;;;;;;;13.84;75.46;97149.69;10436869;28;20307;-57
2022/06/14 06:51:50;;;;;;;7.53;1.90;;;;;;;14.51;73.95;97124.00;10447549;28;20223;-59
2022/06/14 06:56:54;;;;;;;6.15;2.20;;;;;;;14.48;73.62;97122.53;10473189;28;20212;-54
2022/06/14 07:01:58;;;;;;;5.82;1.90;;;;;;;14.04;73.52;97129.09;10466412;28;20266;-57
2022/06/14 07:06:59;;;;;;;4.07;1.55;;;;;;;14.47;72.30;97104.22;10476151;28;20252;-56
2022/06/14 07:12:06;;;;;;;2.90;1.55;;;;;;;14.85;70.18;97084.13;10500426;28;20279;-60
2022/06/14 07:17:12;;;;;;;7.13;1.33;;;;;;;14.88;68.81;97057.41;10480739;28;20219;-58
2022/06/14 07:22:25;;;;;;;9.65;1.58;;;;;;;14.87;69.59;97090.06;10479761;28;20274;-59
2022/06/14 07:27:36;;;;;;;6.97;2.05;;;;;;;15.31;69.13;97092.06;10480777;28;20612;-60
2022/06/14 07:32:46;;;;;;;5.88;1.30;;;;;;;15.21;66.21;97049.25;10480513;28;20724;-60
2022/06/14 07:37:53;;;;;;;5.70;1.33;;;;;;;15.28;67.36;97092.44;10481395;28;20219;-60
2022/06/14 07:42:55;;;;;;;4.72;1.38;;;;;;;15.37;66.20;97052.75;10481382;28;20198;-55
2022/06/14 07:48:16;;;;;;;4.82;1.30;;;;;;;16.68;63.21;97005.53;10480722;28;20215;-58
2022/06/14 07:53:38;;;;;;;3.70;1.83;;;;;;;15.27;67.04;97069.66;10498486;28;20321;-58
2022/06/14 07:58:58;;;;;;;5.40;2.42;;;;;;;14.83;68.20;97098.50;10480309;28;20214;-57
2022/06/14 08:04:08;;;;;;;7.80;2.03;;;;;;;14.97;69.05;97116.22;10479343;28;20210;-58
2022/06/14 08:09:18;;;;;;;11.82;2.22;;;;;;;14.86;69.41;97129.81;10497738;28;20290;-56
2022/06/14 08:14:26;;;;;;;5.47;1.95;;;;;;;16.70;63.65;97041.34;10479760;28;20246;-58
2022/06/14 08:19:42;;;;;;;5.70;1.80;;;;;;;16.75;64.28;97056.66;10478939;28;20261;-59
2022/06/14 08:24:49;;;;;;;4.40;1.85;;;;;;;16.70;60.39;96975.22;10479433;28;20185;-59
2022/06/14 08:29:52;;;;;;;5.68;1.90;;;;;;;17.30;59.47;96969.63;10395630;23;20229;-57
2022/06/14 08:35:04;;;;;;;6.85;2.05;;;;;;;16.54;61.88;97029.19;10372172;28;20231;-55
2022/06/14 08:40:24;;;;;;;5.07;1.85;;;;;;;18.07;58.24;96985.59;10405506;28;20232;-59
2022/06/14 08:45:38;;;;;;;3.42;1.45;;;;;;;18.58;57.61;96974.56;10413601;28;20574;-60
2022/06/14 08:50:56;;;;;;;6.43;2.00;;;;;;;18.57;55.92;96937.63;10413053;28;20181;-58
2022/06/14 08:56:24;;;;;;;5.15;1.52;;;;;;;17.76;55.09;96902.06;10412272;28;20240;-56
2022/06/14 09:01:56;;;;;;;4.93;1.70;;;;;;;16.54;59.13;96978.94;10410864;28;20690;-58
2022/06/14 09:07:23;;;;;;;5.65;1.95;;;;;;;17.19;59.19;96996.66;10357871;28;20229;-58
2022/06/14 09:12:35;;;;;;;5.43;1.75;;;;;;;17.96;57.40;96974.56;10402572;28;20252;-59
2022/06/14 09:17:54;;;;;;;3.58;1.90;;;;;;;18.10;55.10;96917.13;10411146;28;20294;-59
2022/06/14 09:23:15;;;;;;;9.00;1.60;;;;;;;17.78;56.82;96961.81;10412220;28;20193;-60
2022/06/14 09:28:41;;;;;;;4.57;1.90;;;;;;;18.98;55.48;96952.59;10412082;28;20561;-53
2022/06/14 09:34:19;;;;;;;7.40;2.13;;;;;;;19.71;49.72;96832.06;10410209;28;20227;-53
2022/06/14 09:39:40;;;;;;;6.22;1.52;;;;;;;20.10;51.30;96878.94;10411393;28;20590;-49
2022/06/14 09:44:53;;;;;;;3.88;1.75;;;;;;;19.16;52.09;96877.63;10385754;28;20674;-52
2022/06/14 09:50:44;;;;;;;3.83;1.52;;;;;;;18.98;51.80;96871.09;10410138;28;20303;-54
2022/06/14 09:55:57;;;;;;;4.35;1.70;;;;;;;20.00;49.71;96838.72;10375428;28;20330;-58
2022/06/14 10:01:12;;;;;;;3.75;1.80;;;;;;;19.21;50.42;96849.41;10411316;28;20196;-52
2022/06/14 10:06:44;;;;;;;3.25;1.65;;;;;;;20.67;45.53;96743.25;10408875;28;20686;-55
2022/06/14 10:12:10;;;;;;;6.30;1.42;;;;;;;22.52;43.67;96760.72;10409958;28;20248;-53
2022/06/14 10:17:30;;;;;;;5.78;1.75;;;;;;;20.91;45.78;96777.22;10409823;28;20222;-53
2022/06/14 10:22:54;;;;;;;8.05;1.80;;;;;;;19.32;50.89;96887.78;10409738;28;20218;-59
2022/06/14 10:28:13;;;;;;;3.65;1.50;;;;;;;21.63;45.56;96793.44;10395233;28;20240;-58
2022/06/14 10:33:22;;;;;;;4.00;1.60;;;;;;;20.88;44.57;96738.53;10369293;28;20224;-55
2022/06/14 10:38:55;;;;;;;4.10;1.63;;;;;;;17.69;52.03;96858.81;10348561;28;20208;-52
2022/06/14 10:44:08;;;;;;;3.35;1.80;;;;;;;19.74;48.80;96839.59;10339669;28;20204;-58
2022/06/14 10:49:40;;;;;;;7.68;2.08;;;;;;;19.47;49.91;96862.84;10406628;28;20208;-58
2022/06/14 10:55:03;;;;;;;4.82;1.42;;;;;;;19.82;50.65;96891.78;10409499;28;20286;-56
2022/06/14 11:00:22;;;;;;;4.38;1.50;;;;;;;21.98;44.58;96784.75;10408052;28;20591;-54
2022/06/14 11:05:44;;;;;;;5.40;1.70;;;;;;;20.99;46.26;96807.03;10408031;28;20433;-57
2022/06/14 11:11:08;;;;;;;6.65;2.00;;;;;;;19.27;50.76;96892.13;10402856;28;20280;-54
2022/06/14 11:16:34;;;;;;;5.07;1.30;;;;;;;21.33;45.14;96793.34;10408898;28;20216;-57
2022/06/14 11:21:57;;;;;;;3.20;1.50;;;;;;;22.38;42.78;96752.13;10407767;28;20192;-57
2022/06/14 11:27:24;;;;;;;4.45;1.38;;;;;;;23.63;41.85;96775.09;10408545;28;20877;-59
2022/06/14 11:32:36;;;;;;;4.18;1.70;;;;;;;23.61;40.00;96708.47;10408604;28;20224;-58
2022/06/14 11:37:53;;;;;;;3.10;1.38;;;;;;;23.78;39.87;96708.53;10407226;28;20216;-57
2022/06/14 11:43:12;;;;;;;4.35;1.48;;;;;;;24.50;39.03;96703.50;10407478;28;20250;-58
2022/06/14 11:48:37;;;;;;;5.25;1.30;;;;;;;23.57;39.78;96693.97;10406293;28;20322;-59
2022/06/14 11:54:02;;;;;;;6.30;1.40;;;;;;;24.93;38.81;96701.97;10408043;28;20259;-60
2022/06/14 11:59:14;;;;;;;4.55;1.20;;;;;;;25.64;37.75;96711.94;10376893;28;20217;-59
2022/06/14 12:04:26;;;;;;;7.00;1.20;;;;;;;24.77;37.72;96676.88;10374369;28;20331;-58
2022/06/14 12:09:47;;;;;;;4.50;1.48;;;;;;;25.62;37.49;96698.78;10373348;28;20223;-59
2022/06/14 12:14:58;;;;;;;6.05;1.20;;;;;;;24.78;38.21;96681.19;10374185;28;20231;-57
2022/06/14 12:20:02;;;;;;;2.88;1.20;;;;;;;23.62;40.56;96720.81;10373498;28;20233;-59
2022/06/14 12:30:33;;;;;;;5.15;1.20;;;;;;;23.26;41.30;96735.34;10332246;28;20214;-58
2022/06/14 12:35:36;;;;;;;4.60;1.27;;;;;;;24.00;38.77;96667.72;10332147;28;20218;-59
2022/06/14 12:40:54;;;;;;;4.53;1.23;;;;;;;23.29;39.49;96663.53;10332376;28;20538;-59
2022/06/14 12:46:08;;;;;;;3.15;1.20;;;;;;;24.64;37.37;96648.59;10331849;28;20237;-59
2022/06/14 12:51:19;;;;;;;3.53;1.10;;;;;;;24.29;38.27;96652.34;10331946;28;20277;-60
2022/06/14 12:56:30;;;;;;;8.40;1.45;;;;;;;23.43;39.84;96669.41;10394588;28;20216;-59
2022/06/14 13:01:47;;;;;;;3.65;1.10;;;;;;;24.59;38.11;96664.56;10412743;28;20698;-58
2022/06/14 13:07:00;;;;;;;3.65;1.17;;;;;;;25.33;36.78;96647.25;10412099;28;20223;-60
2022/06/14 13:12:17;;;;;;;2.20;1.02;;;;;;;25.19;36.14;96624.53;10413525;28;20212;-59
2022/06/14 13:17:53;;;;;;;3.42;0.93;;;;;;;25.98;35.19;96615.91;10411697;28;20208;-59
2022/06/14 13:23:14;;;;;;;3.20;1.20;;;;;;;25.86;35.71;96633.25;10408106;28;20587;-59
2022/06/14 13:28:37;;;;;;;5.88;1.35;;;;;;;20.93;42.50;96650.78;10410074;28;20244;-59
2022/06/14 13:33:49;;;;;;;5.28;1.25;;;;;;;23.82;38.81;96650.78;10412486;28;20307;-58
2022/06/14 13:39:02;;;;;;;3.40;1.00;;;;;;;25.55;36.81;96655.25;10389716;28;20283;-59
2022/06/14 13:44:15;;;;;;;3.08;1.20;;;;;;;27.72;33.36;96617.66;10329387;28;20182;-59
2022/06/14 13:49:21;;;;;;;4.07;1.05;;;;;;;26.73;32.18;96517.47;10330145;28;20701;-60
2022/06/14 13:54:31;;;;;;;3.65;0.90;;;;;;;26.74;34.14;96599.69;10361080;28;20235;-57
2022/06/14 13:59:33;;;;;;;2.83;1.17;;;;;;;28.17;32.74;96609.84;10408065;28;20223;-60
2022/06/14 14:04:40;;;;;;;2.33;0.95;;;;;;;29.46;30.20;96552.66;10407771;28;20267;-58
2022/06/14 14:09:59;;;;;;;3.20;1.20;;;;;;;30.06;29.96;96555.09;10408783;28;20635;-59
2022/06/14 14:15:05;;;;;;;5.28;1.17;;;;;;;29.14;31.91;96589.84;10395395;28;20224;-60
2022/06/14 14:20:18;;;;;;;5.90;1.23;;;;;;;28.46;32.74;96599.25;10346826;28;20214;-60
2022/06/14 14:25:29;;;;;;;2.42;1.13;;;;;;;28.55;32.25;96587.94;10348804;28;20227;-59
2022/06/14 14:31:01;;;;;;;3.35;1.08;;;;;;;29.35;30.74;96549.25;10351660;28;20214;-60
2022/06/14 14:36:08;;;;;;;2.40;1.30;;;;;;;29.43;31.27;96559.41;10383264;23;20240;-58
2022/06/14 14:41:34;;;;;;;3.75;1.10;;;;;;;30.64;29.08;96521.75;10412150;28;20199;-56
2022/06/14 14:46:36;;;;;;;2.80;1.00;;;;;;;30.00;29.62;96513.84;10395899;28;20284;-58
2022/06/14 14:51:40;;;;;;;2.25;1.10;;;;;;;30.10;28.68;96491.31;10368271;28;20633;-59
2022/06/14 14:56:51;;;;;;;4.55;1.30;;;;;;;30.61;28.42;96511.53;10374731;28;20323;-59
2022/06/14 15:08:11;;;;;;;3.65;1.10;;;;;;;28.14;30.98;96509.94;10363976;28;20266;-60
2022/06/14 15:13:11;;;;;;;4.90;0.77;;;;;;;27.09;31.81;96482.56;10390082;28;20691;-60
2022/06/14 15:23:40;;;;;;;6.22;1.10;;;;;;;28.57;30.87;96499.50;10406570;28;20435;-59
2022/06/14 15:28:45;;;;;;;4.10;1.00;;;;;;;28.63;31.79;96541.56;10411874;28;20699;-55
2022/06/14 15:33:45;;;;;;;3.20;1.08;;;;;;;30.00;30.45;96551.66;10415539;28;20693;-59
2022/06/14 15:38:47;;;;;;;3.57;1.10;;;;;;;28.53;32.05;96523.53;10397924;28;20382;-57
2022/06/14 15:44:03;;;;;;;2.25;1.08;;;;;;;27.69;32.31;96502.47;10415895;28;20455;-59
2022/06/14 15:49:12;;;;;;;2.78;1.00;;;;;;;28.35;32.38;96524.94;10415501;28;20211;-61
2022/06/14 15:54:30;;;;;;;1.98;1.00;;;;;;;26.87;32.82;96484.41;10415859;28;20216;-60
2022/06/14 15:59:38;;;;;;;5.97;1.08;;;;;;;27.60;32.19;96501.41;10415450;28;20220;-60
2022/06/14 16:04:39;;;;;;;3.10;1.00;;;;;;;25.59;34.96;96506.13;10415488;28;20199;-60
2022/06/14 16:09:44;;;;;;;4.75;1.30;;;;;;;24.99;35.18;96493.81;10405013;28;20216;-60
2022/06/14 16:14:54;;;;;;;6.18;1.35;;;;;;;23.99;37.69;96543.00;10374648;28;20714;-60
2022/06/14 16:19:59;;;;;;;3.92;1.25;;;;;;;23.51;38.75;96571.94;10385272;28;20244;-58
2022/06/14 16:24:59;;;;;;;6.30;1.40;;;;;;;23.71;37.32;96544.69;10380641;28;20200;-58
2022/06/14 16:30:20;;;;;;;4.82;1.45;;;;;;;22.98;38.89;96560.56;10375035;28;20738;-59
2022/06/14 16:36:07;;;;;;;6.45;1.58;;;;;;;21.45;41.76;96594.34;10374372;28;20673;-59
2022/06/14 16:41:44;;;;;;;11.27;2.10;;;;;;;20.93;43.26;96632.16;10169591;29;20208;-58
2022/06/14 16:46:53;;;;;;;3.65;1.33;;;;;;;21.03;44.66;96688.38;10352532;28;20258;-58
2022/06/14 16:52:00;;;;;;;2.88;1.42;;;;;;;21.20;43.79;96671.78;10356197;28;20217;-58
2022/06/14 16:57:11;;;;;;;5.53;1.65;;;;;;;21.37;44.12;96694.06;10382218;28;20274;-59
2022/06/14 17:03:07;;;;;;;4.85;1.60;;;;;;;20.61;46.48;96733.47;10395379;28;20197;-58
2022/06/14 17:08:19;;;;;;;5.75;1.88;;;;;;;19.72;47.62;96744.13;10396512;28;20240;-59
2022/06/14 17:13:30;;;;;;;5.38;1.85;;;;;;;19.76;47.81;96750.66;10395916;28;20219;-59
2022/06/14 17:18:43;;;;;;;6.05;1.85;;;;;;;19.51;48.96;96776.34;10373480;28;20639;-56
2022/06/14 17:24:15;;;;;;;4.75;1.88;;;;;;;19.28;49.74;96798.94;10388970;28;20682;-54
2022/06/14 17:34:44;;;;;;;6.80;1.85;;;;;;;18.96;50.40;96793.50;10389023;28;20200;-57
2022/06/14 17:39:54;;;;;;;3.67;1.42;;;;;;;18.83;51.40;96815.53;10391952;28;20232;-54
2022/06/14 17:45:11;;;;;;;3.45;1.73;;;;;;;18.54;51.71;96814.97;10379891;28;20280;-53
2022/06/14 17:50:46;;;;;;;3.05;1.67;;;;;;;18.31;51.60;96806.59;10389046;28;20216;-53
2022/06/14 17:55:55;;;;;;;5.07;1.38;;;;;;;18.76;50.51;96801.47;10359116;28;20723;-54
2022/06/14 18:01:13;;;;;;;2.88;1.60;;;;;;;18.48;51.39;96821.09;10391077;28;20228;-59
2022/06/14 18:06:14;;;;;;;2.50;1.50;;;;;;;18.52;51.95;96840.88;10393392;28;20239;-54
2022/06/14 18:11:14;;;;;;;6.18;1.45;;;;;;;18.49;51.91;96835.16;10393777;28;20227;-54
2022/06/14 18:16:22;;;;;;;6.72;1.40;;;;;;;18.22;52.40;96843.06;10410738;28;20270;-53
2022/06/14 18:21:25;;;;;;;5.57;1.73;;;;;;;17.98;53.65;96861.19;10393592;28;20238;-56
2022/06/14 18:26:37;;;;;;;3.92;1.60;;;;;;;17.70;54.27;96881.66;10410594;28;20219;-53
2022/06/14 18:32:08;;;;;;;6.35;1.77;;;;;;;17.45;54.94;96885.59;10410943;28;20188;-53
2022/06/14 18:37:20;;;;;;;2.83;1.80;;;;;;;17.21;55.14;96881.63;10410975;28;20695;-56
2022/06/14 18:42:21;;;;;;;4.70;1.65;;;;;;;16.91;57.18;96928.63;10410826;28;20203;-55
2022/06/14 18:47:24;;;;;;;5.88;1.88;;;;;;;16.35;58.95;96951.25;10410475;28;20215;-54
2022/06/14 18:52:32;;;;;;;7.28;2.13;;;;;;;16.01;60.47;96967.75;10392681;28;20679;-55
2022/06/14 18:57:53;;;;;;;5.85;2.05;;;;;;;15.33;63.39;97008.22;10392676;28;20214;-54
2022/06/14 19:03:09;;;;;;;6.97;2.08;;;;;;;14.41;67.63;97053.00;10412677;28;20188;-56
2022/06/14 19:08:31;;;;;;;5.38;2.63;;;;;;;12.82;73.49;97072.81;10418611;28;20216;-57
2022/06/14 19:13:49;;;;;;;3.67;2.20;;;;;;;12.36;77.61;97067.09;10418449;28;20212;-58
2022/06/14 19:19:14;;;;;;;4.88;2.50;;;;;;;12.34;80.08;97048.84;10418035;28;20311;-57
2022/06/14 19:24:43;;;;;;;8.75;3.20;;;;;;;12.10;81.46;97037.28;10416064;28;20226;-59
2022/06/14 19:29:49;;;;;;;4.78;2.72;;;;;;;12.23;81.80;97030.78;10417876;28;20218;-54
2022/06/14 19:34:57;;;;;;;3.50;2.40;;;;;;;12.01;82.66;97032.19;10416726;28;20264;-55
2022/06/14 19:40:00;;;;;;;4.15;2.65;;;;;;;11.78;83.54;97033.50;10405245;28;20236;-56
2022/06/14 19:45:08;;;;;;;7.57;2.95;;;;;;;11.82;83.96;97033.19;10383806;28;20194;-58
2022/06/14 19:50:27;;;;;;;6.53;3.10;;;;;;;11.71;84.29;97037.72;10386011;28;20213;-57
2022/06/14 19:55:33;;;;;;;5.25;2.67;;;;;;;11.69;84.54;97042.31;10374692;28;20220;-56
2022/06/14 20:00:40;;;;;;;9.18;3.22;;;;;;;11.74;83.93;97050.53;10374475;28;20551;-53
2022/06/14 20:05:42;;;;;;;6.10;2.88;;;;;;;11.59;84.73;97049.47;10375004;28;20289;-54
2022/06/14 20:10:48;;;;;;;6.43;2.67;;;;;;;11.28;87.11;97060.41;10375618;28;20189;-53
2022/06/14 20:16:00;;;;;;;4.30;3.40;;;;;;;11.00;90.04;97057.88;10373661;28;20284;-55
2022/06/14 20:21:03;;;;;;;6.80;3.13;;;;;;;10.89;90.45;97058.13;10374341;28;20213;-56
2022/06/14 20:26:04;;;;;;;4.63;3.20;;;;;;;10.93;90.88;97059.44;10373194;28;20607;-52
2022/06/14 20:31:07;;;;;;;5.13;2.90;;;;;;;10.89;89.98;97063.34;10374292;28;20185;-53
2022/06/14 20:36:22;;;;;;;8.47;3.90;;;;;;;10.85;90.94;97048.91;10373927;28;20233;-56
2022/06/14 20:41:24;;;;;;;7.70;3.60;;;;;;;10.77;91.07;97056.69;10392599;23;20239;-49
2022/06/14 20:46:28;;;;;;;9.47;3.10;;;;;;;10.47;92.59;97064.72;10372837;28;20197;-49
2022/06/14 20:51:30;;;;;;;6.17;3.33;;;;;;;10.37;93.52;97063.97;10372367;28;20224;-52
2022/06/14 20:56:32;;;;;;;8.13;3.50;;;;;;;10.31;93.70;97060.09;10372296;28;20205;-51
2022/06/14 21:01:32;;;;;;;9.20;3.10;;;;;;;10.30;94.28;97053.22;10373874;28;20213;-49
2022/06/14 21:06:32;;;;;;;5.30;3.30;;;;;;;10.15;94.98;97052.06;10373029;28;20284;-51
2022/06/14 21:11:43;;;;;;;5.23;3.60;;;;;;;10.08;96.26;97053.63;10373520;28;20209;-49
2022/06/14 21:16:51;;;;;;;5.27;3.00;;;;;;;9.86;97.35;97055.59;10373408;28;20678;-52
2022/06/14 21:21:53;;;;;;;8.87;3.20;;;;;;;9.76;98.76;97063.50;10371914;28;20221;-50
2022/06/14 21:27:16;;;;;;;9.20;3.77;;;;;;;9.77;98.40;97057.31;10372655;28;20244;-49
2022/06/14 21:32:18;;;;;;;10.87;3.57;;;;;;;9.64;99.51;97064.63;10371349;28;20234;-48
2022/06/14 21:37:35;;;;;;;7.40;3.53;;;;;;;9.51;100.00;97058.88;10372578;28;20194;-52
2022/06/14 21:42:35;;;;;;;4.57;3.30;;;;;;;9.42;100.00;97065.81;10372321;28;20228;-51
2022/06/14 21:47:36;;;;;;;4.67;2.80;;;;;;;9.39;100.00;97069.50;10372121;28;20268;-49
2022/06/14 21:52:38;;;;;;;10.00;3.47;;;;;;;9.32;100.00;97072.81;10371971;28;20221;-48
2022/06/14 21:57:43;;;;;;;7.20;3.37;;;;;;;9.17;100.00;97065.41;10371758;28;20570;-48
2022/06/14 22:02:47;;;;;;;6.53;3.00;;;;;;;9.09;100.00;97078.34;10370126;28;20703;-50
2022/06/14 22:07:47;;;;;;;5.73;3.37;;;;;;;8.92;100.00;97070.22;10371126;28;20263;-51
2022/06/14 22:12:47;;;;;;;5.63;3.37;;;;;;;8.92;100.00;97074.63;10371078;28;20582;-48
2022/06/14 22:17:48;;;;;;;4.43;3.10;;;;;;;8.95;100.00;97071.75;10370906;28;20779;-49
2022/06/14 22:22:48;;;;;;;6.70;3.20;;;;;;;8.82;100.00;97073.78;10370546;28;20672;-49
2022/06/14 22:27:49;;;;;;;3.00;2.67;;;;;;;8.72;100.00;97066.78;10370259;28;20725;-48
2022/06/14 22:32:50;;;;;;;6.27;3.40;;;;;;;8.69;100.00;97067.03;10370456;28;20233;-49
2022/06/14 22:37:50;;;;;;;4.43;2.60;;;;;;;8.71;100.00;97061.69;10369155;28;20208;-49
2022/06/14 22:42:51;;;;;;;4.73;3.27;;;;;;;8.52;100.00;97062.50;10370082;28;20204;-50
2022/06/14 22:47:51;;;;;;;6.73;2.30;;;;;;;8.50;100.00;97060.03;10370012;28;20213;-48
2022/06/14 22:52:53;;;;;;;5.00;2.70;;;;;;;8.51;100.00;97064.25;10369790;28;20730;-50
2022/06/14 22:58:03;;;;;;;5.67;3.03;;;;;;;8.48;100.00;97063.72;10370028;28;20299;-52
2022/06/14 23:03:03;;;;;;;5.37;3.00;;;;;;;8.39;100.00;97065.31;10368624;28;20200;-53
2022/06/14 23:08:04;;;;;;;8.37;3.47;;;;;;;8.33;100.00;97069.31;10369425;28;20209;-52
2022/06/14 23:13:04;;;;;;;4.63;2.90;;;;;;;8.28;100.00;97062.81;10369661;28;20221;-54
2022/06/14 23:18:05;;;;;;;6.47;3.20;;;;;;;8.25;100.00;97063.09;10369324;28;20213;-56
2022/06/14 23:23:05;;;;;;;8.90;3.27;;;;;;;8.19;100.00;97054.84;10369159;28;20557;-50
2022/06/14 23:28:05;;;;;;;3.87;2.70;;;;;;;8.11;100.00;97061.66;10367281;28;20279;-55
2022/06/14 23:33:06;;;;;;;5.80;2.83;;;;;;;8.11;100.00;97062.50;10369348;28;20221;-51
2022/06/14 23:38:06;;;;;;;5.00;2.60;;;;;;;8.09;100.00;97058.38;10368358;28;20653;-51
2022/06/14 23:43:07;;;;;;;5.90;3.60;;;;;;;7.98;100.00;97059.31;10368944;28;20613;-54
2022/06/14 23:48:07;;;;;;;8.80;2.97;;;;;;;7.92;100.00;97063.25;10369913;28;20536;-51
2022/06/14 23:53:07;;;;;;;7.13;3.00;;;;;;;7.85;100.00;97052.50;10376244;28;20748;-49
2022/06/14 23:58:09;;;;;;;5.03;3.43;;;;;;;7.81;100.00;97053.75;10376179;28;20217;-55
